sensor_id;sensor_type;location;lat;lon;timestamp;P1;durP1;ratioP1;P2;durP2;ratioP2
75061;SDS011;63641;46.526;24.612;2022-10-22T00:02:18;268.38;;;253.57;;
75061;SDS011;63641;46.526;24.612;2022-10-22T00:04:49;235.85;;;223.23;;
75061;SDS011;63641;46.526;24.612;2022-10-22T00:07:16;249.02;;;235.57;;
75061;SDS011;63641;46.526;24.612;2022-10-22T00:09:43;214.85;;;203.40;;
75061;SDS011;63641;46.526;24.612;2022-10-22T00:12:11;238.60;;;225.60;;
75061;SDS011;63641;46.526;24.612;2022-10-22T00:14:40;251.85;;;238.57;;
75061;SDS011;63641;46.526;24.612;2022-10-22T00:17:08;238.70;;;226.25;;
75061;SDS011;63641;46.526;24.612;2022-10-22T00:19:37;241.75;;;228.77;;
75061;SDS011;63641;46.526;24.612;2022-10-22T00:22:04;240.50;;;227.88;;
75061;SDS011;63641;46.526;24.612;2022-10-22T00:24:32;224.40;;;212.68;;
75061;SDS011;63641;46.526;24.612;2022-10-22T00:27:00;231.68;;;219.90;;
75061;SDS011;63641;46.526;24.612;2022-10-22T00:29:26;245.88;;;232.95;;
75061;SDS011;63641;46.526;24.612;2022-10-22T00:31:53;271.48;;;256.85;;
75061;SDS011;63641;46.526;24.612;2022-10-22T00:34:25;268.48;;;254.07;;
75061;SDS011;63641;46.526;24.612;2022-10-22T00:36:52;295.13;;;278.63;;
75061;SDS011;63641;46.526;24.612;2022-10-22T00:39:21;316.30;;;298.58;;
75061;SDS011;63641;46.526;24.612;2022-10-22T00:41:49;325.88;;;307.20;;
75061;SDS011;63641;46.526;24.612;2022-10-22T00:47:21;395.25;;;371.98;;
75061;SDS011;63641;46.526;24.612;2022-10-22T00:49:50;473.58;;;444.65;;
75061;SDS011;63641;46.526;24.612;2022-10-22T00:52:19;512.70;;;480.73;;
75061;SDS011;63641;46.526;24.612;2022-10-22T00:54:46;519.67;;;487.58;;
75061;SDS011;63641;46.526;24.612;2022-10-22T00:57:14;524.95;;;492.17;;
75061;SDS011;63641;46.526;24.612;2022-10-22T00:59:42;548.22;;;514.10;;
75061;SDS011;63641;46.526;24.612;2022-10-22T01:02:09;539.88;;;506.25;;
75061;SDS011;63641;46.526;24.612;2022-10-22T01:04:36;556.67;;;521.63;;
75061;SDS011;63641;46.526;24.612;2022-10-22T01:07:03;564.72;;;529.13;;
75061;SDS011;63641;46.526;24.612;2022-10-22T01:09:40;458.88;;;431.35;;
75061;SDS011;63641;46.526;24.612;2022-10-22T01:12:22;518.50;;;486.25;;
75061;SDS011;63641;46.526;24.612;2022-10-22T01:15:09;574.88;;;538.55;;
75061;SDS011;63641;46.526;24.612;2022-10-22T01:25:59;581.92;;;544.90;;
75061;SDS011;63641;46.526;24.612;2022-10-22T01:31:10;581.13;;;543.95;;
75061;SDS011;63641;46.526;24.612;2022-10-22T01:33:38;586.53;;;549.00;;
75061;SDS011;63641;46.526;24.612;2022-10-22T01:36:06;572.50;;;536.33;;
75061;SDS011;63641;46.526;24.612;2022-10-22T01:38:34;596.33;;;558.58;;
75061;SDS011;63641;46.526;24.612;2022-10-22T01:41:02;587.60;;;550.45;;
75061;SDS011;63641;46.526;24.612;2022-10-22T01:43:29;579.35;;;542.83;;
75061;SDS011;63641;46.526;24.612;2022-10-22T01:45:57;561.05;;;525.85;;
75061;SDS011;63641;46.526;24.612;2022-10-22T01:48:50;565.63;;;530.00;;
75061;SDS011;63641;46.526;24.612;2022-10-22T01:51:45;579.97;;;543.15;;
75061;SDS011;63641;46.526;24.612;2022-10-22T02:00:16;578.63;;;541.85;;
75061;SDS011;63641;46.526;24.612;2022-10-22T02:05:50;582.22;;;545.35;;
75061;SDS011;63641;46.526;24.612;2022-10-22T02:08:26;577.58;;;541.13;;
75061;SDS011;63641;46.526;24.612;2022-10-22T02:10:56;585.65;;;548.92;;
75061;SDS011;63641;46.526;24.612;2022-10-22T02:13:34;577.70;;;541.20;;
75061;SDS011;63641;46.526;24.612;2022-10-22T02:16:07;534.63;;;501.75;;
75061;SDS011;63641;46.526;24.612;2022-10-22T02:18:37;518.63;;;486.67;;
75061;SDS011;63641;46.526;24.612;2022-10-22T02:21:08;562.13;;;526.78;;
75061;SDS011;63641;46.526;24.612;2022-10-22T02:23:35;533.28;;;500.42;;
75061;SDS011;63641;46.526;24.612;2022-10-22T02:26:24;564.00;;;528.95;;
75061;SDS011;63641;46.526;24.612;2022-10-22T02:29:12;560.40;;;525.15;;
75061;SDS011;63641;46.526;24.612;2022-10-22T02:31:41;563.15;;;527.75;;
75061;SDS011;63641;46.526;24.612;2022-10-22T02:34:10;566.00;;;530.80;;
75061;SDS011;63641;46.526;24.612;2022-10-22T02:36:42;456.48;;;428.88;;
75061;SDS011;63641;46.526;24.612;2022-10-22T02:39:15;344.50;;;324.65;;
75061;SDS011;63641;46.526;24.612;2022-10-22T02:41:44;351.27;;;330.58;;
75061;SDS011;63641;46.526;24.612;2022-10-22T02:44:11;449.88;;;422.60;;
75061;SDS011;63641;46.526;24.612;2022-10-22T02:46:38;538.88;;;505.65;;
75061;SDS011;63641;46.526;24.612;2022-10-22T02:49:06;516.08;;;484.35;;
75061;SDS011;63641;46.526;24.612;2022-10-22T02:51:33;582.78;;;546.40;;
75061;SDS011;63641;46.526;24.612;2022-10-22T02:54:00;550.63;;;516.17;;
75061;SDS011;63641;46.526;24.612;2022-10-22T02:56:27;539.75;;;506.40;;
75061;SDS011;63641;46.526;24.612;2022-10-22T02:58:53;482.00;;;452.33;;
75061;SDS011;63641;46.526;24.612;2022-10-22T03:01:20;477.88;;;448.52;;
75061;SDS011;63641;46.526;24.612;2022-10-22T03:03:47;456.55;;;428.65;;
75061;SDS011;63641;46.526;24.612;2022-10-22T03:06:14;462.92;;;434.85;;
75061;SDS011;63641;46.526;24.612;2022-10-22T03:08:42;549.30;;;515.28;;
75061;SDS011;63641;46.526;24.612;2022-10-22T03:11:09;580.25;;;544.38;;
75061;SDS011;63641;46.526;24.612;2022-10-22T03:13:35;577.65;;;541.42;;
75061;SDS011;63641;46.526;24.612;2022-10-22T03:16:02;445.52;;;418.73;;
75061;SDS011;63641;46.526;24.612;2022-10-22T03:18:29;478.70;;;449.25;;
75061;SDS011;63641;46.526;24.612;2022-10-22T03:21:07;442.85;;;416.00;;
75061;SDS011;63641;46.526;24.612;2022-10-22T03:23:39;532.78;;;499.48;;
75061;SDS011;63641;46.526;24.612;2022-10-22T03:26:09;464.15;;;435.35;;
75061;SDS011;63641;46.526;24.612;2022-10-22T03:28:37;455.13;;;427.13;;
75061;SDS011;63641;46.526;24.612;2022-10-22T03:31:06;612.47;;;574.17;;
75061;SDS011;63641;46.526;24.612;2022-10-22T03:33:33;561.85;;;526.88;;
75061;SDS011;63641;46.526;24.612;2022-10-22T03:35:59;487.20;;;457.23;;
75061;SDS011;63641;46.526;24.612;2022-10-22T03:38:27;497.90;;;467.13;;
75061;SDS011;63641;46.526;24.612;2022-10-22T03:40:54;448.23;;;420.83;;
75061;SDS011;63641;46.526;24.612;2022-10-22T03:43:21;446.52;;;420.42;;
75061;SDS011;63641;46.526;24.612;2022-10-22T03:45:48;450.27;;;422.70;;
75061;SDS011;63641;46.526;24.612;2022-10-22T03:48:14;608.80;;;570.90;;
75061;SDS011;63641;46.526;24.612;2022-10-22T03:50:41;580.53;;;544.63;;
75061;SDS011;63641;46.526;24.612;2022-10-22T03:53:08;532.08;;;499.23;;
75061;SDS011;63641;46.526;24.612;2022-10-22T03:55:35;567.65;;;532.47;;
75061;SDS011;63641;46.526;24.612;2022-10-22T03:58:04;544.83;;;510.85;;
75061;SDS011;63641;46.526;24.612;2022-10-22T04:00:31;512.33;;;480.67;;
75061;SDS011;63641;46.526;24.612;2022-10-22T04:02:59;523.70;;;491.48;;
75061;SDS011;63641;46.526;24.612;2022-10-22T04:05:25;556.67;;;521.95;;
75061;SDS011;63641;46.526;24.612;2022-10-22T04:07:52;544.13;;;510.63;;
75061;SDS011;63641;46.526;24.612;2022-10-22T04:10:19;509.98;;;478.33;;
75061;SDS011;63641;46.526;24.612;2022-10-22T04:12:46;512.65;;;480.88;;
75061;SDS011;63641;46.526;24.612;2022-10-22T04:15:13;529.28;;;496.35;;
75061;SDS011;63641;46.526;24.612;2022-10-22T04:17:40;536.92;;;503.52;;
75061;SDS011;63641;46.526;24.612;2022-10-22T04:20:07;546.55;;;512.85;;
75061;SDS011;63641;46.526;24.612;2022-10-22T04:22:35;540.10;;;506.83;;
75061;SDS011;63641;46.526;24.612;2022-10-22T04:25:02;564.75;;;529.15;;
75061;SDS011;63641;46.526;24.612;2022-10-22T04:27:31;553.88;;;519.13;;
75061;SDS011;63641;46.526;24.612;2022-10-22T04:29:58;551.08;;;517.05;;
75061;SDS011;63641;46.526;24.612;2022-10-22T04:32:25;466.75;;;437.95;;
75061;SDS011;63641;46.526;24.612;2022-10-22T04:34:53;355.17;;;334.02;;
75061;SDS011;63641;46.526;24.612;2022-10-22T04:37:20;283.23;;;266.85;;
75061;SDS011;63641;46.526;24.612;2022-10-22T04:39:46;274.63;;;258.80;;
75061;SDS011;63641;46.526;24.612;2022-10-22T04:42:13;241.27;;;227.50;;
75061;SDS011;63641;46.526;24.612;2022-10-22T04:44:40;253.77;;;239.00;;
75061;SDS011;63641;46.526;24.612;2022-10-22T04:47:07;415.45;;;389.58;;
75061;SDS011;63641;46.526;24.612;2022-10-22T04:49:33;325.58;;;306.02;;
75061;SDS011;63641;46.526;24.612;2022-10-22T04:52:00;410.50;;;385.10;;
75061;SDS011;63641;46.526;24.612;2022-10-22T04:54:26;458.67;;;429.75;;
75061;SDS011;63641;46.526;24.612;2022-10-22T04:56:58;398.95;;;374.20;;
75061;SDS011;63641;46.526;24.612;2022-10-22T04:59:25;414.75;;;388.92;;
75061;SDS011;63641;46.526;24.612;2022-10-22T05:01:52;295.75;;;278.67;;
75061;SDS011;63641;46.526;24.612;2022-10-22T05:04:18;212.63;;;200.68;;
75061;SDS011;63641;46.526;24.612;2022-10-22T05:06:45;163.32;;;154.82;;
75061;SDS011;63641;46.526;24.612;2022-10-22T05:09:14;158.25;;;150.25;;
75061;SDS011;63641;46.526;24.612;2022-10-22T05:11:46;234.77;;;221.63;;
75061;SDS011;63641;46.526;24.612;2022-10-22T05:14:15;222.23;;;209.98;;
75061;SDS011;63641;46.526;24.612;2022-10-22T05:16:45;217.05;;;205.23;;
75061;SDS011;63641;46.526;24.612;2022-10-22T05:19:32;256.27;;;239.38;;
75061;SDS011;63641;46.526;24.612;2022-10-22T05:22:00;220.57;;;206.77;;
75061;SDS011;63641;46.526;24.612;2022-10-22T05:24:30;274.58;;;257.60;;
75061;SDS011;63641;46.526;24.612;2022-10-22T05:26:58;275.20;;;257.65;;
75061;SDS011;63641;46.526;24.612;2022-10-22T05:29:25;254.45;;;237.82;;
75061;SDS011;63641;46.526;24.612;2022-10-22T05:31:52;315.67;;;294.08;;
75061;SDS011;63641;46.526;24.612;2022-10-22T05:34:19;280.58;;;261.40;;
75061;SDS011;63641;46.526;24.612;2022-10-22T05:36:45;271.30;;;253.25;;
75061;SDS011;63641;46.526;24.612;2022-10-22T05:39:12;327.88;;;305.95;;
75061;SDS011;63641;46.526;24.612;2022-10-22T05:41:39;243.07;;;227.93;;
75061;SDS011;63641;46.526;24.612;2022-10-22T05:44:07;218.25;;;205.18;;
75061;SDS011;63641;46.526;24.612;2022-10-22T05:46:37;218.07;;;204.60;;
75061;SDS011;63641;46.526;24.612;2022-10-22T05:49:05;292.17;;;273.20;;
75061;SDS011;63641;46.526;24.612;2022-10-22T05:51:33;444.60;;;415.85;;
75061;SDS011;63641;46.526;24.612;2022-10-22T05:54:02;421.63;;;394.17;;
75061;SDS011;63641;46.526;24.612;2022-10-22T05:56:31;333.88;;;312.48;;
75061;SDS011;63641;46.526;24.612;2022-10-22T05:58:59;403.38;;;377.17;;
75061;SDS011;63641;46.526;24.612;2022-10-22T06:01:27;382.38;;;357.50;;
75061;SDS011;63641;46.526;24.612;2022-10-22T06:03:59;430.70;;;403.05;;
75061;SDS011;63641;46.526;24.612;2022-10-22T06:09:11;418.35;;;392.30;;
75061;SDS011;63641;46.526;24.612;2022-10-22T06:11:39;331.98;;;312.15;;
75061;SDS011;63641;46.526;24.612;2022-10-22T06:14:06;281.40;;;263.80;;
75061;SDS011;63641;46.526;24.612;2022-10-22T06:16:33;255.93;;;241.15;;
75061;SDS011;63641;46.526;24.612;2022-10-22T06:18:59;271.30;;;254.98;;
75061;SDS011;63641;46.526;24.612;2022-10-22T06:21:28;260.55;;;245.02;;
75061;SDS011;63641;46.526;24.612;2022-10-22T06:23:57;267.75;;;252.60;;
75061;SDS011;63641;46.526;24.612;2022-10-22T06:26:25;248.93;;;234.52;;
75061;SDS011;63641;46.526;24.612;2022-10-22T06:28:51;296.13;;;277.98;;
75061;SDS011;63641;46.526;24.612;2022-10-22T06:31:18;275.63;;;259.20;;
75061;SDS011;63641;46.526;24.612;2022-10-22T06:33:45;301.42;;;282.98;;
75061;SDS011;63641;46.526;24.612;2022-10-22T06:36:13;318.73;;;299.33;;
75061;SDS011;63641;46.526;24.612;2022-10-22T06:38:42;306.17;;;288.15;;
75061;SDS011;63641;46.526;24.612;2022-10-22T06:41:13;157.57;;;149.02;;
75061;SDS011;63641;46.526;24.612;2022-10-22T06:43:41;174.40;;;164.88;;
75061;SDS011;63641;46.526;24.612;2022-10-22T06:46:13;195.30;;;184.48;;
75061;SDS011;63641;46.526;24.612;2022-10-22T06:48:52;159.57;;;150.80;;
75061;SDS011;63641;46.526;24.612;2022-10-22T06:51:22;163.98;;;154.43;;
75061;SDS011;63641;46.526;24.612;2022-10-22T06:53:48;165.18;;;156.50;;
75061;SDS011;63641;46.526;24.612;2022-10-22T06:56:17;138.57;;;131.13;;
75061;SDS011;63641;46.526;24.612;2022-10-22T06:58:49;227.73;;;214.70;;
75061;SDS011;63641;46.526;24.612;2022-10-22T07:01:17;143.18;;;135.68;;
75061;SDS011;63641;46.526;24.612;2022-10-22T07:03:46;108.20;;;102.60;;
75061;SDS011;63641;46.526;24.612;2022-10-22T07:06:16;121.50;;;115.22;;
75061;SDS011;63641;46.526;24.612;2022-10-22T07:08:44;92.60;;;87.75;;
75061;SDS011;63641;46.526;24.612;2022-10-22T07:11:13;84.43;;;79.90;;
75061;SDS011;63641;46.526;24.612;2022-10-22T07:13:41;78.03;;;73.93;;
75061;SDS011;63641;46.526;24.612;2022-10-22T07:16:08;78.05;;;73.93;;
75061;SDS011;63641;46.526;24.612;2022-10-22T07:18:36;84.85;;;80.65;;
75061;SDS011;63641;46.526;24.612;2022-10-22T07:21:04;79.50;;;75.65;;
75061;SDS011;63641;46.526;24.612;2022-10-22T07:23:32;76.30;;;72.57;;
75061;SDS011;63641;46.526;24.612;2022-10-22T07:25:59;128.60;;;122.75;;
75061;SDS011;63641;46.526;24.612;2022-10-22T07:28:28;105.70;;;100.47;;
75061;SDS011;63641;46.526;24.612;2022-10-22T07:30:55;129.75;;;123.57;;
75061;SDS011;63641;46.526;24.612;2022-10-22T07:33:22;122.18;;;116.45;;
75061;SDS011;63641;46.526;24.612;2022-10-22T07:35:49;113.70;;;108.30;;
75061;SDS011;63641;46.526;24.612;2022-10-22T07:38:15;120.13;;;114.63;;
75061;SDS011;63641;46.526;24.612;2022-10-22T07:40:42;123.75;;;117.95;;
75061;SDS011;63641;46.526;24.612;2022-10-22T07:43:09;94.22;;;89.55;;
75061;SDS011;63641;46.526;24.612;2022-10-22T07:45:35;115.20;;;109.80;;
75061;SDS011;63641;46.526;24.612;2022-10-22T07:48:02;81.20;;;77.55;;
75061;SDS011;63641;46.526;24.612;2022-10-22T07:50:29;99.30;;;93.28;;
75061;SDS011;63641;46.526;24.612;2022-10-22T07:52:56;94.00;;;89.72;;
75061;SDS011;63641;46.526;24.612;2022-10-22T07:55:24;94.28;;;90.10;;
75061;SDS011;63641;46.526;24.612;2022-10-22T07:57:50;105.18;;;100.55;;
75061;SDS011;63641;46.526;24.612;2022-10-22T08:00:17;103.95;;;99.30;;
75061;SDS011;63641;46.526;24.612;2022-10-22T08:02:49;105.78;;;100.75;;
75061;SDS011;63641;46.526;24.612;2022-10-22T08:05:16;92.10;;;88.07;;
75061;SDS011;63641;46.526;24.612;2022-10-22T08:07:43;111.07;;;106.18;;
75061;SDS011;63641;46.526;24.612;2022-10-22T08:10:10;115.15;;;110.07;;
75061;SDS011;63641;46.526;24.612;2022-10-22T08:12:38;110.57;;;105.90;;
75061;SDS011;63641;46.526;24.612;2022-10-22T08:15:06;122.95;;;117.45;;
75061;SDS011;63641;46.526;24.612;2022-10-22T08:17:33;110.00;;;105.07;;
75061;SDS011;63641;46.526;24.612;2022-10-22T08:20:00;110.43;;;105.65;;
75061;SDS011;63641;46.526;24.612;2022-10-22T08:22:26;80.60;;;76.68;;
75061;SDS011;63641;46.526;24.612;2022-10-22T08:24:53;109.15;;;103.82;;
75061;SDS011;63641;46.526;24.612;2022-10-22T08:27:20;109.35;;;104.50;;
75061;SDS011;63641;46.526;24.612;2022-10-22T08:29:47;110.15;;;105.20;;
75061;SDS011;63641;46.526;24.612;2022-10-22T08:32:13;101.90;;;97.10;;
75061;SDS011;63641;46.526;24.612;2022-10-22T08:34:40;98.75;;;94.38;;
75061;SDS011;63641;46.526;24.612;2022-10-22T08:37:07;109.38;;;104.47;;
75061;SDS011;63641;46.526;24.612;2022-10-22T08:39:35;105.60;;;100.80;;
75061;SDS011;63641;46.526;24.612;2022-10-22T08:42:04;115.40;;;110.38;;
75061;SDS011;63641;46.526;24.612;2022-10-22T08:45:10;105.75;;;100.60;;
75061;SDS011;63641;46.526;24.612;2022-10-22T08:50:36;105.15;;;100.38;;
75061;SDS011;63641;46.526;24.612;2022-10-22T08:53:11;85.88;;;81.82;;
75061;SDS011;63641;46.526;24.612;2022-10-22T08:55:40;115.38;;;110.28;;
75061;SDS011;63641;46.526;24.612;2022-10-22T09:01:13;98.20;;;93.93;;
75061;SDS011;63641;46.526;24.612;2022-10-22T09:04:20;109.13;;;104.28;;
75061;SDS011;63641;46.526;24.612;2022-10-22T09:06:54;103.72;;;99.18;;
75061;SDS011;63641;46.526;24.612;2022-10-22T09:09:31;103.57;;;99.18;;
75061;SDS011;63641;46.526;24.612;2022-10-22T09:12:04;100.38;;;96.07;;
75061;SDS011;63641;46.526;24.612;2022-10-22T09:14:32;97.43;;;92.95;;
75061;SDS011;63641;46.526;24.612;2022-10-22T09:17:06;82.60;;;78.72;;
75061;SDS011;63641;46.526;24.612;2022-10-22T09:25:20;90.28;;;86.40;;
75061;SDS011;63641;46.526;24.612;2022-10-22T09:30:32;92.57;;;88.32;;
75061;SDS011;63641;46.526;24.612;2022-10-22T09:33:01;74.93;;;71.55;;
75061;SDS011;63641;46.526;24.612;2022-10-22T09:35:43;80.72;;;76.90;;
75061;SDS011;63641;46.526;24.612;2022-10-22T09:38:13;79.30;;;75.45;;
75061;SDS011;63641;46.526;24.612;2022-10-22T09:40:43;82.55;;;79.03;;
75061;SDS011;63641;46.526;24.612;2022-10-22T09:43:13;79.10;;;75.30;;
75061;SDS011;63641;46.526;24.612;2022-10-22T09:45:40;79.75;;;75.93;;
75061;SDS011;63641;46.526;24.612;2022-10-22T09:50:48;84.45;;;80.68;;
75061;SDS011;63641;46.526;24.612;2022-10-22T09:53:27;76.53;;;73.05;;
75061;SDS011;63641;46.526;24.612;2022-10-22T09:55:58;99.30;;;94.95;;
75061;SDS011;63641;46.526;24.612;2022-10-22T09:58:26;82.10;;;78.25;;
75061;SDS011;63641;46.526;24.612;2022-10-22T10:00:55;96.70;;;92.43;;
75061;SDS011;63641;46.526;24.612;2022-10-22T10:03:25;82.60;;;78.35;;
75061;SDS011;63641;46.526;24.612;2022-10-22T10:05:55;81.45;;;77.72;;
75061;SDS011;63641;46.526;24.612;2022-10-22T10:08:30;85.68;;;81.63;;
75061;SDS011;63641;46.526;24.612;2022-10-22T10:10:58;82.53;;;78.93;;
75061;SDS011;63641;46.526;24.612;2022-10-22T10:13:41;89.30;;;85.38;;
75061;SDS011;63641;46.526;24.612;2022-10-22T10:16:14;85.05;;;80.93;;
75061;SDS011;63641;46.526;24.612;2022-10-22T10:18:55;87.32;;;83.45;;
75061;SDS011;63641;46.526;24.612;2022-10-22T10:30:08;86.46;;;82.61;;
75061;SDS011;63641;46.526;24.612;2022-10-22T10:38:04;86.05;;;82.13;;
75061;SDS011;63641;46.526;24.612;2022-10-22T10:40:45;80.28;;;75.95;;
75061;SDS011;63641;46.526;24.612;2022-10-22T10:51:44;77.60;;;73.78;;
75061;SDS011;63641;46.526;24.612;2022-10-22T10:56:43;76.35;;;72.75;;
75061;SDS011;63641;46.526;24.612;2022-10-22T11:07:30;76.68;;;72.93;;
75061;SDS011;63641;46.526;24.612;2022-10-22T11:12:56;77.97;;;74.17;;
75061;SDS011;63641;46.526;24.612;2022-10-22T11:15:32;90.10;;;85.68;;
75061;SDS011;63641;46.526;24.612;2022-10-22T11:18:11;95.05;;;90.72;;
75061;SDS011;63641;46.526;24.612;2022-10-22T11:20:51;87.32;;;83.30;;
75061;SDS011;63641;46.526;24.612;2022-10-22T11:23:34;87.13;;;83.07;;
75061;SDS011;63641;46.526;24.612;2022-10-22T11:26:12;84.22;;;80.50;;
75061;SDS011;63641;46.526;24.612;2022-10-22T11:28:49;91.90;;;87.60;;
75061;SDS011;63641;46.526;24.612;2022-10-22T11:31:22;90.80;;;85.75;;
75061;SDS011;63641;46.526;24.612;2022-10-22T11:33:56;87.43;;;83.43;;
75061;SDS011;63641;46.526;24.612;2022-10-22T11:36:50;90.20;;;86.00;;
75061;SDS011;63641;46.526;24.612;2022-10-22T11:39:37;93.65;;;89.38;;
75061;SDS011;63641;46.526;24.612;2022-10-22T11:42:20;99.90;;;95.25;;
75061;SDS011;63641;46.526;24.612;2022-10-22T11:44:57;89.78;;;85.43;;
75061;SDS011;63641;46.526;24.612;2022-10-22T11:47:50;91.03;;;86.72;;
75061;SDS011;63641;46.526;24.612;2022-10-22T11:58:25;97.38;;;92.88;;
75061;SDS011;63641;46.526;24.612;2022-10-22T12:00:57;95.40;;;90.65;;
75061;SDS011;63641;46.526;24.612;2022-10-22T12:08:45;85.80;;;81.93;;
75061;SDS011;63641;46.526;24.612;2022-10-22T12:11:19;84.55;;;80.63;;
75061;SDS011;63641;46.526;24.612;2022-10-22T12:13:57;91.03;;;86.88;;
75061;SDS011;63641;46.526;24.612;2022-10-22T12:21:51;93.78;;;89.57;;
75061;SDS011;63641;46.526;24.612;2022-10-22T12:24:22;93.05;;;88.55;;
75061;SDS011;63641;46.526;24.612;2022-10-22T12:26:51;93.32;;;89.13;;
75061;SDS011;63641;46.526;24.612;2022-10-22T12:29:19;102.95;;;98.38;;
75061;SDS011;63641;46.526;24.612;2022-10-22T12:31:51;97.93;;;93.43;;
75061;SDS011;63641;46.526;24.612;2022-10-22T12:34:23;93.40;;;89.20;;
75061;SDS011;63641;46.526;24.612;2022-10-22T12:36:51;98.88;;;94.32;;
75061;SDS011;63641;46.526;24.612;2022-10-22T12:39:23;96.22;;;91.70;;
75061;SDS011;63641;46.526;24.612;2022-10-22T12:41:52;97.50;;;93.10;;
75061;SDS011;63641;46.526;24.612;2022-10-22T12:44:21;97.65;;;93.13;;
75061;SDS011;63641;46.526;24.612;2022-10-22T12:46:47;90.65;;;86.38;;
75061;SDS011;63641;46.526;24.612;2022-10-22T12:49:22;99.32;;;94.50;;
75061;SDS011;63641;46.526;24.612;2022-10-22T12:51:54;100.47;;;95.95;;
75061;SDS011;63641;46.526;24.612;2022-10-22T12:54:28;88.43;;;84.05;;
75061;SDS011;63641;46.526;24.612;2022-10-22T12:56:58;89.70;;;85.65;;
75061;SDS011;63641;46.526;24.612;2022-10-22T12:59:26;91.50;;;87.22;;
75061;SDS011;63641;46.526;24.612;2022-10-22T13:01:58;102.55;;;96.65;;
75061;SDS011;63641;46.526;24.612;2022-10-22T13:07:02;113.47;;;108.10;;
75061;SDS011;63641;46.526;24.612;2022-10-22T13:09:45;92.68;;;88.25;;
75061;SDS011;63641;46.526;24.612;2022-10-22T13:12:13;98.22;;;93.97;;
75061;SDS011;63641;46.526;24.612;2022-10-22T13:14:42;109.50;;;104.53;;
75061;SDS011;63641;46.526;24.612;2022-10-22T13:19:48;97.40;;;92.47;;
75061;SDS011;63641;46.526;24.612;2022-10-22T13:22:23;98.30;;;93.95;;
75061;SDS011;63641;46.526;24.612;2022-10-22T13:24:55;93.82;;;89.60;;
75061;SDS011;63641;46.526;24.612;2022-10-22T13:27:25;126.03;;;118.03;;
75061;SDS011;63641;46.526;24.612;2022-10-22T13:29:54;109.65;;;104.78;;
75061;SDS011;63641;46.526;24.612;2022-10-22T13:32:31;97.95;;;93.40;;
75061;SDS011;63641;46.526;24.612;2022-10-22T13:35:00;92.07;;;87.85;;
75061;SDS011;63641;46.526;24.612;2022-10-22T13:37:29;94.72;;;90.30;;
75061;SDS011;63641;46.526;24.612;2022-10-22T13:39:57;96.43;;;92.00;;
75061;SDS011;63641;46.526;24.612;2022-10-22T13:42:24;91.32;;;87.22;;
75061;SDS011;63641;46.526;24.612;2022-10-22T13:44:51;119.05;;;113.25;;
75061;SDS011;63641;46.526;24.612;2022-10-22T13:47:23;110.57;;;105.68;;
75061;SDS011;63641;46.526;24.612;2022-10-22T13:49:54;147.82;;;141.10;;
75061;SDS011;63641;46.526;24.612;2022-10-22T13:52:28;167.15;;;159.32;;
75061;SDS011;63641;46.526;24.612;2022-10-22T13:54:55;163.88;;;156.05;;
75061;SDS011;63641;46.526;24.612;2022-10-22T13:57:22;157.25;;;150.23;;
75061;SDS011;63641;46.526;24.612;2022-10-22T13:59:49;145.75;;;139.25;;
75061;SDS011;63641;46.526;24.612;2022-10-22T14:02:16;143.43;;;136.73;;
75061;SDS011;63641;46.526;24.612;2022-10-22T14:04:43;141.25;;;134.43;;
75061;SDS011;63641;46.526;24.612;2022-10-22T14:07:14;146.05;;;139.15;;
75061;SDS011;63641;46.526;24.612;2022-10-22T14:09:42;160.15;;;151.90;;
75061;SDS011;63641;46.526;24.612;2022-10-22T14:12:13;152.63;;;145.25;;
75061;SDS011;63641;46.526;24.612;2022-10-22T14:14:41;149.23;;;142.30;;
75061;SDS011;63641;46.526;24.612;2022-10-22T14:17:11;154.40;;;146.82;;
75061;SDS011;63641;46.526;24.612;2022-10-22T14:19:43;162.95;;;155.35;;
75061;SDS011;63641;46.526;24.612;2022-10-22T14:22:13;165.10;;;157.27;;
75061;SDS011;63641;46.526;24.612;2022-10-22T14:24:41;161.82;;;154.45;;
75061;SDS011;63641;46.526;24.612;2022-10-22T14:27:09;163.75;;;156.00;;
75061;SDS011;63641;46.526;24.612;2022-10-22T14:29:38;161.35;;;153.82;;
75061;SDS011;63641;46.526;24.612;2022-10-22T14:32:08;172.38;;;164.13;;
75061;SDS011;63641;46.526;24.612;2022-10-22T14:34:39;185.50;;;176.57;;
75061;SDS011;63641;46.526;24.612;2022-10-22T14:37:16;175.05;;;166.77;;
75061;SDS011;63641;46.526;24.612;2022-10-22T14:39:45;196.40;;;187.15;;
75061;SDS011;63641;46.526;24.612;2022-10-22T14:42:17;197.05;;;187.43;;
75061;SDS011;63641;46.526;24.612;2022-10-22T14:44:45;186.68;;;177.95;;
75061;SDS011;63641;46.526;24.612;2022-10-22T14:47:11;184.55;;;176.05;;
75061;SDS011;63641;46.526;24.612;2022-10-22T14:49:38;186.50;;;177.38;;
75061;SDS011;63641;46.526;24.612;2022-10-22T14:52:05;157.50;;;149.20;;
75061;SDS011;63641;46.526;24.612;2022-10-22T14:54:36;193.68;;;184.63;;
75061;SDS011;63641;46.526;24.612;2022-10-22T14:57:03;188.70;;;179.48;;
75061;SDS011;63641;46.526;24.612;2022-10-22T14:59:32;191.50;;;181.82;;
75061;SDS011;63641;46.526;24.612;2022-10-22T15:01:58;185.05;;;175.80;;
75061;SDS011;63641;46.526;24.612;2022-10-22T15:04:25;193.95;;;184.35;;
75061;SDS011;63641;46.526;24.612;2022-10-22T15:06:53;199.52;;;190.30;;
75061;SDS011;63641;46.526;24.612;2022-10-22T15:09:22;195.70;;;185.60;;
75061;SDS011;63641;46.526;24.612;2022-10-22T15:11:49;186.50;;;176.65;;
75061;SDS011;63641;46.526;24.612;2022-10-22T15:14:16;193.88;;;182.52;;
75061;SDS011;63641;46.526;24.612;2022-10-22T15:16:43;164.25;;;155.25;;
75061;SDS011;63641;46.526;24.612;2022-10-22T15:19:10;178.02;;;163.27;;
75061;SDS011;63641;46.526;24.612;2022-10-22T15:21:37;127.20;;;119.63;;
75061;SDS011;63641;46.526;24.612;2022-10-22T15:24:04;140.02;;;128.75;;
75061;SDS011;63641;46.526;24.612;2022-10-22T15:26:33;128.60;;;119.00;;
75061;SDS011;63641;46.526;24.612;2022-10-22T15:29:00;118.85;;;110.18;;
75061;SDS011;63641;46.526;24.612;2022-10-22T15:31:42;131.75;;;122.47;;
75061;SDS011;63641;46.526;24.612;2022-10-22T15:34:12;139.90;;;130.70;;
75061;SDS011;63641;46.526;24.612;2022-10-22T15:36:43;136.60;;;127.28;;
75061;SDS011;63641;46.526;24.612;2022-10-22T15:39:09;135.60;;;126.75;;
75061;SDS011;63641;46.526;24.612;2022-10-22T15:41:36;120.70;;;112.95;;
75061;SDS011;63641;46.526;24.612;2022-10-22T15:44:03;118.97;;;111.10;;
75061;SDS011;63641;46.526;24.612;2022-10-22T15:46:31;110.45;;;103.88;;
75061;SDS011;63641;46.526;24.612;2022-10-22T15:49:01;112.68;;;106.10;;
75061;SDS011;63641;46.526;24.612;2022-10-22T15:51:27;105.85;;;99.60;;